To NAV CANADA Home Page Login to a new session Search on AWWS site Feedback and Comments Disclaimer Vers la page française équivalente Tips FAQ What's new on the site To the Forecasts and Observations / NOTAM section To "File a Flight Plan" website Publications and other links Update of the User's profile FIC Telephone Numbers My Weather Data Folder Route Weather Data Regional Weather Data Local Weather Data To the Forecasts and Observations / NOTAM section
Request Generated 08/30/2016 at 13:05:50 UTC . Weather information available at that time is displayed.

METAR/TAF

MEDICINE HAT/AB    (show WxCam)

METAR CYXH 301300Z 09006KT 30SM FEW020 15/12 A3008 RMK CU1 SLP181
DENSITY ALT 2700FT=
METAR CYXH 301200Z AUTO 06007KT 9SM SCT140 15/13 A3009 RMK SLP184
DENSITY ALT 2700FT=
METAR CYXH 301100Z AUTO 09006KT 9SM FEW150 SCT170 16/13 A3011 RMK
SLP190 DENSITY ALT 2700FT=

TAF CYXH 301141Z 3012/3024 09008KT P6SM SCT060 BKN180
FM301600 05010KT P6SM SCT060
BECMG 3022/3024 11008KT
RMK FCST BASED ON AUTO OBS. NXT FCST BY 301800Z=
Your time UTC time
Weather data provided by Environment Canada and NAV CANADA